sensor_id;sensor_type;location;lat;lon;timestamp;P1;durP1;ratioP1;P2;durP2;ratioP2
56136;SDS011;42008;52.934;5.884;2022-12-29T00:02:10;4.70;;;3.67;;
56136;SDS011;42008;52.934;5.884;2022-12-29T00:04:36;4.87;;;3.93;;
56136;SDS011;42008;52.934;5.884;2022-12-29T00:07:02;10.43;;;5.00;;
56136;SDS011;42008;52.934;5.884;2022-12-29T00:09:29;6.03;;;3.70;;
56136;SDS011;42008;52.934;5.884;2022-12-29T00:11:56;5.33;;;3.93;;
56136;SDS011;42008;52.934;5.884;2022-12-29T00:14:22;5.87;;;4.00;;
56136;SDS011;42008;52.934;5.884;2022-12-29T00:17:06;5.17;;;3.80;;
56136;SDS011;42008;52.934;5.884;2022-12-29T00:19:31;5.53;;;3.60;;
56136;SDS011;42008;52.934;5.884;2022-12-29T00:22:16;7.40;;;3.37;;
56136;SDS011;42008;52.934;5.884;2022-12-29T00:25:00;6.07;;;3.77;;
56136;SDS011;42008;52.934;5.884;2022-12-29T00:27:30;5.17;;;3.33;;
56136;SDS011;42008;52.934;5.884;2022-12-29T00:30:24;4.60;;;3.37;;
56136;SDS011;42008;52.934;5.884;2022-12-29T00:33:12;5.47;;;3.63;;
56136;SDS011;42008;52.934;5.884;2022-12-29T00:38:51;4.80;;;3.10;;
56136;SDS011;42008;52.934;5.884;2022-12-29T00:41:40;5.37;;;3.50;;
56136;SDS011;42008;52.934;5.884;2022-12-29T00:44:24;5.07;;;3.47;;
56136;SDS011;42008;52.934;5.884;2022-12-29T00:46:50;4.80;;;3.50;;
56136;SDS011;42008;52.934;5.884;2022-12-29T00:49:16;4.37;;;3.40;;
56136;SDS011;42008;52.934;5.884;2022-12-29T00:51:57;4.67;;;3.20;;
56136;SDS011;42008;52.934;5.884;2022-12-29T00:54:30;6.25;;;3.45;;
56136;SDS011;42008;52.934;5.884;2022-12-29T00:56:57;4.80;;;2.97;;
56136;SDS011;42008;52.934;5.884;2022-12-29T00:59:23;5.00;;;3.60;;
56136;SDS011;42008;52.934;5.884;2022-12-29T01:01:49;6.10;;;3.13;;
56136;SDS011;42008;52.934;5.884;2022-12-29T01:04:16;8.80;;;3.63;;
56136;SDS011;42008;52.934;5.884;2022-12-29T01:06:42;6.10;;;3.90;;
56136;SDS011;42008;52.934;5.884;2022-12-29T01:09:08;5.23;;;3.47;;
56136;SDS011;42008;52.934;5.884;2022-12-29T01:11:53;5.10;;;3.80;;
56136;SDS011;42008;52.934;5.884;2022-12-29T01:14:19;7.27;;;4.67;;
56136;SDS011;42008;52.934;5.884;2022-12-29T01:16:45;7.00;;;4.60;;
56136;SDS011;42008;52.934;5.884;2022-12-29T01:19:11;10.00;;;5.77;;
56136;SDS011;42008;52.934;5.884;2022-12-29T01:21:38;9.77;;;6.27;;
56136;SDS011;42008;52.934;5.884;2022-12-29T01:24:03;7.87;;;4.63;;
56136;SDS011;42008;52.934;5.884;2022-12-29T01:26:29;9.47;;;5.43;;
56136;SDS011;42008;52.934;5.884;2022-12-29T01:28:54;10.03;;;5.17;;
56136;SDS011;42008;52.934;5.884;2022-12-29T01:31:20;10.57;;;5.17;;
56136;SDS011;42008;52.934;5.884;2022-12-29T01:33:46;6.57;;;5.20;;
56136;SDS011;42008;52.934;5.884;2022-12-29T01:36:12;10.60;;;4.97;;
56136;SDS011;42008;52.934;5.884;2022-12-29T01:38:40;6.97;;;4.20;;
56136;SDS011;42008;52.934;5.884;2022-12-29T01:41:07;8.53;;;5.17;;
56136;SDS011;42008;52.934;5.884;2022-12-29T01:43:53;8.13;;;4.10;;
56136;SDS011;42008;52.934;5.884;2022-12-29T01:48:48;7.37;;;3.47;;
56136;SDS011;42008;52.934;5.884;2022-12-29T01:51:19;7.73;;;3.57;;
56136;SDS011;42008;52.934;5.884;2022-12-29T01:53:48;5.97;;;3.20;;
56136;SDS011;42008;52.934;5.884;2022-12-29T01:56:15;4.40;;;2.90;;
56136;SDS011;42008;52.934;5.884;2022-12-29T01:58:45;4.33;;;2.67;;
56136;SDS011;42008;52.934;5.884;2022-12-29T02:01:13;4.33;;;2.37;;
56136;SDS011;42008;52.934;5.884;2022-12-29T02:03:40;5.17;;;2.40;;
56136;SDS011;42008;52.934;5.884;2022-12-29T02:06:14;5.07;;;2.70;;
56136;SDS011;42008;52.934;5.884;2022-12-29T02:08:50;4.97;;;2.43;;
56136;SDS011;42008;52.934;5.884;2022-12-29T02:11:18;4.77;;;2.33;;
56136;SDS011;42008;52.934;5.884;2022-12-29T02:13:44;8.57;;;2.77;;
56136;SDS011;42008;52.934;5.884;2022-12-29T02:25:14;5.37;;;2.07;;
56136;SDS011;42008;52.934;5.884;2022-12-29T02:27:55;8.90;;;1.60;;
56136;SDS011;42008;52.934;5.884;2022-12-29T02:30:42;4.50;;;1.80;;
56136;SDS011;42008;52.934;5.884;2022-12-29T02:36:32;5.43;;;1.90;;
56136;SDS011;42008;52.934;5.884;2022-12-29T02:39:04;3.30;;;1.60;;
56136;SDS011;42008;52.934;5.884;2022-12-29T02:41:50;4.47;;;1.63;;
56136;SDS011;42008;52.934;5.884;2022-12-29T02:44:34;7.73;;;2.00;;
56136;SDS011;42008;52.934;5.884;2022-12-29T02:49:48;5.78;;;2.05;;
56136;SDS011;42008;52.934;5.884;2022-12-29T02:52:22;4.40;;;2.00;;
56136;SDS011;42008;52.934;5.884;2022-12-29T02:54:53;3.80;;;1.50;;
56136;SDS011;42008;52.934;5.884;2022-12-29T02:59:52;5.20;;;1.60;;
56136;SDS011;42008;52.934;5.884;2022-12-29T03:08:19;6.40;;;1.77;;
56136;SDS011;42008;52.934;5.884;2022-12-29T03:11:03;5.77;;;1.70;;
56136;SDS011;42008;52.934;5.884;2022-12-29T03:16:32;6.23;;;1.60;;
56136;SDS011;42008;52.934;5.884;2022-12-29T03:22:13;6.43;;;1.70;;
56136;SDS011;42008;52.934;5.884;2022-12-29T03:24:53;4.33;;;1.50;;
56136;SDS011;42008;52.934;5.884;2022-12-29T03:27:41;6.93;;;2.00;;
56136;SDS011;42008;52.934;5.884;2022-12-29T03:30:10;7.83;;;2.20;;
56136;SDS011;42008;52.934;5.884;2022-12-29T03:32:47;8.67;;;2.00;;
56136;SDS011;42008;52.934;5.884;2022-12-29T03:35:17;7.53;;;1.93;;
56136;SDS011;42008;52.934;5.884;2022-12-29T03:37:52;10.97;;;2.20;;
56136;SDS011;42008;52.934;5.884;2022-12-29T03:40:39;5.50;;;1.87;;
56136;SDS011;42008;52.934;5.884;2022-12-29T03:43:07;5.30;;;1.50;;
56136;SDS011;42008;52.934;5.884;2022-12-29T03:45:34;7.40;;;1.67;;
56136;SDS011;42008;52.934;5.884;2022-12-29T03:47:59;5.60;;;1.40;;
56136;SDS011;42008;52.934;5.884;2022-12-29T03:50:25;9.30;;;1.70;;
56136;SDS011;42008;52.934;5.884;2022-12-29T03:52:50;8.00;;;2.07;;
56136;SDS011;42008;52.934;5.884;2022-12-29T03:55:16;7.10;;;1.50;;
56136;SDS011;42008;52.934;5.884;2022-12-29T03:57:42;8.07;;;1.67;;
56136;SDS011;42008;52.934;5.884;2022-12-29T04:00:07;8.23;;;1.40;;
56136;SDS011;42008;52.934;5.884;2022-12-29T04:02:33;4.57;;;1.33;;
56136;SDS011;42008;52.934;5.884;2022-12-29T04:04:59;5.23;;;1.40;;
56136;SDS011;42008;52.934;5.884;2022-12-29T04:07:25;7.07;;;1.57;;
56136;SDS011;42008;52.934;5.884;2022-12-29T04:09:50;7.70;;;1.40;;
56136;SDS011;42008;52.934;5.884;2022-12-29T04:12:16;6.90;;;1.60;;
56136;SDS011;42008;52.934;5.884;2022-12-29T04:14:41;9.20;;;1.83;;
56136;SDS011;42008;52.934;5.884;2022-12-29T04:17:07;8.70;;;1.73;;
56136;SDS011;42008;52.934;5.884;2022-12-29T04:19:32;10.07;;;2.10;;
56136;SDS011;42008;52.934;5.884;2022-12-29T04:21:58;8.80;;;1.77;;
56136;SDS011;42008;52.934;5.884;2022-12-29T04:24:23;5.87;;;1.53;;
56136;SDS011;42008;52.934;5.884;2022-12-29T04:26:49;7.53;;;2.27;;
56136;SDS011;42008;52.934;5.884;2022-12-29T04:29:15;10.33;;;2.13;;
56136;SDS011;42008;52.934;5.884;2022-12-29T04:31:40;7.80;;;1.73;;
56136;SDS011;42008;52.934;5.884;2022-12-29T04:34:06;10.57;;;1.80;;
56136;SDS011;42008;52.934;5.884;2022-12-29T04:36:32;10.93;;;2.10;;
56136;SDS011;42008;52.934;5.884;2022-12-29T04:38:57;13.23;;;1.80;;
56136;SDS011;42008;52.934;5.884;2022-12-29T04:41:23;9.97;;;2.03;;
56136;SDS011;42008;52.934;5.884;2022-12-29T04:43:49;9.23;;;2.00;;
56136;SDS011;42008;52.934;5.884;2022-12-29T04:46:15;13.70;;;2.07;;
56136;SDS011;42008;52.934;5.884;2022-12-29T04:48:41;11.20;;;2.20;;
56136;SDS011;42008;52.934;5.884;2022-12-29T04:51:07;8.20;;;2.20;;
56136;SDS011;42008;52.934;5.884;2022-12-29T04:53:32;13.67;;;2.17;;
56136;SDS011;42008;52.934;5.884;2022-12-29T04:55:58;8.83;;;1.80;;
56136;SDS011;42008;52.934;5.884;2022-12-29T04:58:23;10.57;;;1.97;;
56136;SDS011;42008;52.934;5.884;2022-12-29T05:00:50;14.40;;;3.37;;
56136;SDS011;42008;52.934;5.884;2022-12-29T05:03:15;12.30;;;2.93;;
56136;SDS011;42008;52.934;5.884;2022-12-29T05:05:41;14.80;;;2.80;;
56136;SDS011;42008;52.934;5.884;2022-12-29T05:08:07;16.70;;;2.63;;
56136;SDS011;42008;52.934;5.884;2022-12-29T05:10:32;16.20;;;2.80;;
56136;SDS011;42008;52.934;5.884;2022-12-29T05:12:58;13.40;;;2.70;;
56136;SDS011;42008;52.934;5.884;2022-12-29T05:15:23;16.23;;;3.47;;
56136;SDS011;42008;52.934;5.884;2022-12-29T05:17:49;15.80;;;3.00;;
56136;SDS011;42008;52.934;5.884;2022-12-29T05:20:15;14.33;;;2.57;;
56136;SDS011;42008;52.934;5.884;2022-12-29T05:22:41;16.50;;;3.73;;
56136;SDS011;42008;52.934;5.884;2022-12-29T05:25:06;20.00;;;3.00;;
56136;SDS011;42008;52.934;5.884;2022-12-29T05:27:32;24.07;;;2.97;;
56136;SDS011;42008;52.934;5.884;2022-12-29T05:29:58;11.93;;;2.63;;
56136;SDS011;42008;52.934;5.884;2022-12-29T05:32:23;18.47;;;3.33;;
56136;SDS011;42008;52.934;5.884;2022-12-29T05:34:49;17.53;;;2.83;;
56136;SDS011;42008;52.934;5.884;2022-12-29T05:37:15;16.97;;;2.57;;
56136;SDS011;42008;52.934;5.884;2022-12-29T05:39:40;9.33;;;2.27;;
56136;SDS011;42008;52.934;5.884;2022-12-29T05:42:06;16.27;;;2.50;;
56136;SDS011;42008;52.934;5.884;2022-12-29T05:44:32;17.40;;;3.10;;
56136;SDS011;42008;52.934;5.884;2022-12-29T05:46:57;12.70;;;2.30;;
56136;SDS011;42008;52.934;5.884;2022-12-29T05:49:23;19.03;;;2.80;;
56136;SDS011;42008;52.934;5.884;2022-12-29T05:51:48;18.10;;;2.53;;
56136;SDS011;42008;52.934;5.884;2022-12-29T05:54:14;19.73;;;3.23;;
56136;SDS011;42008;52.934;5.884;2022-12-29T05:56:39;19.10;;;2.50;;
56136;SDS011;42008;52.934;5.884;2022-12-29T05:59:05;13.53;;;2.47;;
56136;SDS011;42008;52.934;5.884;2022-12-29T06:01:30;18.13;;;3.40;;
56136;SDS011;42008;52.934;5.884;2022-12-29T06:03:56;14.33;;;2.67;;
56136;SDS011;42008;52.934;5.884;2022-12-29T06:06:22;17.97;;;2.73;;
56136;SDS011;42008;52.934;5.884;2022-12-29T06:08:47;15.03;;;2.57;;
56136;SDS011;42008;52.934;5.884;2022-12-29T06:11:13;13.67;;;2.53;;
56136;SDS011;42008;52.934;5.884;2022-12-29T06:13:38;16.17;;;3.07;;
56136;SDS011;42008;52.934;5.884;2022-12-29T06:16:04;16.60;;;3.13;;
56136;SDS011;42008;52.934;5.884;2022-12-29T06:18:30;15.87;;;3.43;;
56136;SDS011;42008;52.934;5.884;2022-12-29T06:20:59;22.57;;;3.87;;
56136;SDS011;42008;52.934;5.884;2022-12-29T06:23:26;17.23;;;2.97;;
56136;SDS011;42008;52.934;5.884;2022-12-29T06:25:51;22.50;;;3.27;;
56136;SDS011;42008;52.934;5.884;2022-12-29T06:28:17;12.53;;;2.37;;
56136;SDS011;42008;52.934;5.884;2022-12-29T06:30:44;20.33;;;3.60;;
56136;SDS011;42008;52.934;5.884;2022-12-29T06:33:10;16.47;;;3.07;;
56136;SDS011;42008;52.934;5.884;2022-12-29T06:35:36;16.17;;;3.73;;
56136;SDS011;42008;52.934;5.884;2022-12-29T06:38:02;25.17;;;4.17;;
56136;SDS011;42008;52.934;5.884;2022-12-29T06:40:28;20.83;;;3.30;;
56136;SDS011;42008;52.934;5.884;2022-12-29T06:42:54;20.60;;;3.57;;
56136;SDS011;42008;52.934;5.884;2022-12-29T06:45:19;17.17;;;2.83;;
56136;SDS011;42008;52.934;5.884;2022-12-29T06:47:45;14.63;;;2.90;;
56136;SDS011;42008;52.934;5.884;2022-12-29T06:50:10;22.93;;;4.23;;
56136;SDS011;42008;52.934;5.884;2022-12-29T06:52:36;18.20;;;3.00;;
56136;SDS011;42008;52.934;5.884;2022-12-29T06:55:02;20.33;;;3.40;;
56136;SDS011;42008;52.934;5.884;2022-12-29T06:57:28;17.53;;;3.43;;
56136;SDS011;42008;52.934;5.884;2022-12-29T06:59:53;13.53;;;2.60;;
56136;SDS011;42008;52.934;5.884;2022-12-29T07:02:22;15.50;;;3.27;;
56136;SDS011;42008;52.934;5.884;2022-12-29T07:04:50;16.50;;;2.87;;
56136;SDS011;42008;52.934;5.884;2022-12-29T07:07:17;21.53;;;3.20;;
56136;SDS011;42008;52.934;5.884;2022-12-29T07:09:43;18.60;;;3.63;;
56136;SDS011;42008;52.934;5.884;2022-12-29T07:12:08;16.77;;;3.00;;
56136;SDS011;42008;52.934;5.884;2022-12-29T07:14:34;14.87;;;2.97;;
56136;SDS011;42008;52.934;5.884;2022-12-29T07:17:01;14.10;;;3.43;;
56136;SDS011;42008;52.934;5.884;2022-12-29T07:19:27;16.97;;;3.07;;
56136;SDS011;42008;52.934;5.884;2022-12-29T07:21:54;20.63;;;3.90;;
56136;SDS011;42008;52.934;5.884;2022-12-29T07:24:19;20.47;;;4.27;;
56136;SDS011;42008;52.934;5.884;2022-12-29T07:26:45;17.00;;;3.53;;
56136;SDS011;42008;52.934;5.884;2022-12-29T07:29:11;15.40;;;3.10;;
56136;SDS011;42008;52.934;5.884;2022-12-29T07:31:36;15.07;;;3.20;;
56136;SDS011;42008;52.934;5.884;2022-12-29T07:34:02;14.43;;;2.90;;
56136;SDS011;42008;52.934;5.884;2022-12-29T07:36:28;17.93;;;3.47;;
56136;SDS011;42008;52.934;5.884;2022-12-29T07:38:54;19.97;;;3.40;;
56136;SDS011;42008;52.934;5.884;2022-12-29T07:41:19;21.47;;;3.70;;
56136;SDS011;42008;52.934;5.884;2022-12-29T07:43:48;19.90;;;3.33;;
56136;SDS011;42008;52.934;5.884;2022-12-29T07:46:14;20.50;;;4.47;;
56136;SDS011;42008;52.934;5.884;2022-12-29T07:48:40;25.27;;;3.90;;
56136;SDS011;42008;52.934;5.884;2022-12-29T07:51:05;14.30;;;3.00;;
56136;SDS011;42008;52.934;5.884;2022-12-29T07:53:31;19.77;;;3.50;;
56136;SDS011;42008;52.934;5.884;2022-12-29T07:55:57;19.20;;;3.87;;
56136;SDS011;42008;52.934;5.884;2022-12-29T07:58:22;20.57;;;3.13;;
56136;SDS011;42008;52.934;5.884;2022-12-29T08:00:52;18.80;;;2.83;;
56136;SDS011;42008;52.934;5.884;2022-12-29T08:05:46;23.77;;;3.53;;
56136;SDS011;42008;52.934;5.884;2022-12-29T08:08:12;21.77;;;3.90;;
56136;SDS011;42008;52.934;5.884;2022-12-29T08:10:37;29.60;;;4.50;;
56136;SDS011;42008;52.934;5.884;2022-12-29T08:13:03;27.43;;;4.83;;
56136;SDS011;42008;52.934;5.884;2022-12-29T08:15:28;27.00;;;3.70;;
56136;SDS011;42008;52.934;5.884;2022-12-29T08:17:54;23.50;;;4.17;;
56136;SDS011;42008;52.934;5.884;2022-12-29T08:20:19;35.30;;;4.43;;
56136;SDS011;42008;52.934;5.884;2022-12-29T08:22:45;22.53;;;4.90;;
56136;SDS011;42008;52.934;5.884;2022-12-29T08:25:11;18.47;;;3.63;;
56136;SDS011;42008;52.934;5.884;2022-12-29T08:27:36;24.10;;;4.10;;
56136;SDS011;42008;52.934;5.884;2022-12-29T08:30:02;23.87;;;4.43;;
56136;SDS011;42008;52.934;5.884;2022-12-29T08:32:28;26.53;;;4.47;;
56136;SDS011;42008;52.934;5.884;2022-12-29T08:34:54;21.43;;;3.90;;
56136;SDS011;42008;52.934;5.884;2022-12-29T08:37:19;30.50;;;5.03;;
56136;SDS011;42008;52.934;5.884;2022-12-29T08:39:45;27.33;;;4.13;;
56136;SDS011;42008;52.934;5.884;2022-12-29T08:42:10;23.77;;;4.63;;
56136;SDS011;42008;52.934;5.884;2022-12-29T08:44:36;25.67;;;5.20;;
56136;SDS011;42008;52.934;5.884;2022-12-29T08:47:02;29.60;;;4.97;;
56136;SDS011;42008;52.934;5.884;2022-12-29T08:49:27;32.37;;;5.53;;
56136;SDS011;42008;52.934;5.884;2022-12-29T08:51:53;21.10;;;3.80;;
56136;SDS011;42008;52.934;5.884;2022-12-29T08:54:18;31.13;;;4.40;;
56136;SDS011;42008;52.934;5.884;2022-12-29T08:56:44;30.33;;;4.73;;
56136;SDS011;42008;52.934;5.884;2022-12-29T08:59:10;25.03;;;4.30;;
56136;SDS011;42008;52.934;5.884;2022-12-29T09:01:35;20.60;;;3.43;;
56136;SDS011;42008;52.934;5.884;2022-12-29T09:04:01;17.73;;;3.73;;
56136;SDS011;42008;52.934;5.884;2022-12-29T09:06:27;18.60;;;3.37;;
56136;SDS011;42008;52.934;5.884;2022-12-29T09:08:53;14.73;;;3.10;;
56136;SDS011;42008;52.934;5.884;2022-12-29T09:11:20;20.27;;;3.40;;
56136;SDS011;42008;52.934;5.884;2022-12-29T09:13:48;23.77;;;3.87;;
56136;SDS011;42008;52.934;5.884;2022-12-29T09:16:14;17.93;;;2.87;;
56136;SDS011;42008;52.934;5.884;2022-12-29T09:18:41;25.17;;;4.53;;
56136;SDS011;42008;52.934;5.884;2022-12-29T09:21:07;25.03;;;3.87;;
56136;SDS011;42008;52.934;5.884;2022-12-29T09:23:34;20.63;;;3.87;;
56136;SDS011;42008;52.934;5.884;2022-12-29T09:26:00;21.50;;;3.33;;
56136;SDS011;42008;52.934;5.884;2022-12-29T09:28:26;25.47;;;3.80;;
56136;SDS011;42008;52.934;5.884;2022-12-29T09:30:54;20.63;;;3.43;;
56136;SDS011;42008;52.934;5.884;2022-12-29T09:33:20;13.37;;;3.27;;
56136;SDS011;42008;52.934;5.884;2022-12-29T09:35:50;23.70;;;3.97;;
56136;SDS011;42008;52.934;5.884;2022-12-29T09:38:17;20.40;;;3.80;;
56136;SDS011;42008;52.934;5.884;2022-12-29T09:40:44;16.53;;;2.90;;
56136;SDS011;42008;52.934;5.884;2022-12-29T09:46:11;30.77;;;4.70;;
56136;SDS011;42008;52.934;5.884;2022-12-29T09:48:44;29.27;;;5.00;;
56136;SDS011;42008;52.934;5.884;2022-12-29T09:51:15;19.13;;;3.23;;
56136;SDS011;42008;52.934;5.884;2022-12-29T09:53:45;20.07;;;3.27;;
56136;SDS011;42008;52.934;5.884;2022-12-29T09:58:45;21.53;;;3.57;;
56136;SDS011;42008;52.934;5.884;2022-12-29T10:01:32;21.87;;;3.33;;
56136;SDS011;42008;52.934;5.884;2022-12-29T10:04:11;17.57;;;3.27;;
56136;SDS011;42008;52.934;5.884;2022-12-29T10:12:03;28.93;;;4.60;;
56136;SDS011;42008;52.934;5.884;2022-12-29T10:25:28;24.27;;;4.57;;
56136;SDS011;42008;52.934;5.884;2022-12-29T10:27:59;28.23;;;3.42;;
56136;SDS011;42008;52.934;5.884;2022-12-29T10:30:29;27.33;;;4.40;;
56136;SDS011;42008;52.934;5.884;2022-12-29T10:32:56;32.43;;;5.07;;
56136;SDS011;42008;52.934;5.884;2022-12-29T10:35:26;28.47;;;4.27;;
56136;SDS011;42008;52.934;5.884;2022-12-29T10:38:15;32.33;;;5.38;;
56136;SDS011;42008;52.934;5.884;2022-12-29T10:41:08;30.07;;;4.73;;
56136;SDS011;42008;52.934;5.884;2022-12-29T10:43:44;32.03;;;4.83;;
56136;SDS011;42008;52.934;5.884;2022-12-29T10:46:23;27.67;;;4.07;;
56136;SDS011;42008;52.934;5.884;2022-12-29T10:48:52;35.27;;;4.67;;
56136;SDS011;42008;52.934;5.884;2022-12-29T10:51:25;27.20;;;4.40;;
56136;SDS011;42008;52.934;5.884;2022-12-29T10:53:57;34.33;;;5.50;;
56136;SDS011;42008;52.934;5.884;2022-12-29T10:56:39;34.00;;;5.33;;
56136;SDS011;42008;52.934;5.884;2022-12-29T10:59:14;40.57;;;5.23;;
56136;SDS011;42008;52.934;5.884;2022-12-29T11:01:55;38.07;;;6.07;;
56136;SDS011;42008;52.934;5.884;2022-12-29T11:07:11;42.60;;;6.50;;
56136;SDS011;42008;52.934;5.884;2022-12-29T11:09:40;40.47;;;5.40;;
56136;SDS011;42008;52.934;5.884;2022-12-29T11:12:21;40.27;;;7.63;;
56136;SDS011;42008;52.934;5.884;2022-12-29T11:20:23;49.20;;;8.88;;
56136;SDS011;42008;52.934;5.884;2022-12-29T11:22:52;36.13;;;7.30;;
56136;SDS011;42008;52.934;5.884;2022-12-29T11:25:17;56.90;;;7.87;;
56136;SDS011;42008;52.934;5.884;2022-12-29T11:27:54;56.17;;;7.33;;
56136;SDS011;42008;52.934;5.884;2022-12-29T11:30:22;39.60;;;7.10;;
56136;SDS011;42008;52.934;5.884;2022-12-29T11:32:50;45.30;;;7.43;;
56136;SDS011;42008;52.934;5.884;2022-12-29T11:35:31;41.50;;;7.23;;
56136;SDS011;42008;52.934;5.884;2022-12-29T11:37:59;44.47;;;7.82;;
56136;SDS011;42008;52.934;5.884;2022-12-29T11:40:27;43.30;;;7.20;;
56136;SDS011;42008;52.934;5.884;2022-12-29T11:43:02;46.77;;;6.93;;
56136;SDS011;42008;52.934;5.884;2022-12-29T11:45:30;33.70;;;6.33;;
56136;SDS011;42008;52.934;5.884;2022-12-29T11:50:48;32.53;;;5.87;;
56136;SDS011;42008;52.934;5.884;2022-12-29T11:55:53;31.10;;;5.93;;
56136;SDS011;42008;52.934;5.884;2022-12-29T11:58:28;19.10;;;4.13;;
56136;SDS011;42008;52.934;5.884;2022-12-29T12:00:57;29.90;;;5.93;;
56136;SDS011;42008;52.934;5.884;2022-12-29T12:03:32;29.00;;;5.40;;
56136;SDS011;42008;52.934;5.884;2022-12-29T12:06:01;30.63;;;6.40;;
56136;SDS011;42008;52.934;5.884;2022-12-29T12:16:41;25.13;;;4.83;;
56136;SDS011;42008;52.934;5.884;2022-12-29T12:21:54;25.17;;;4.10;;
56136;SDS011;42008;52.934;5.884;2022-12-29T12:27:19;16.07;;;3.27;;
56136;SDS011;42008;52.934;5.884;2022-12-29T12:30:11;18.23;;;3.63;;
56136;SDS011;42008;52.934;5.884;2022-12-29T12:32:43;19.67;;;3.70;;
56136;SDS011;42008;52.934;5.884;2022-12-29T12:43:49;20.03;;;3.20;;
56136;SDS011;42008;52.934;5.884;2022-12-29T12:54:44;21.00;;;3.27;;
56136;SDS011;42008;52.934;5.884;2022-12-29T12:57:42;23.90;;;3.45;;
56136;SDS011;42008;52.934;5.884;2022-12-29T13:00:19;18.50;;;3.53;;
56136;SDS011;42008;52.934;5.884;2022-12-29T13:03:04;16.50;;;3.00;;
56136;SDS011;42008;52.934;5.884;2022-12-29T13:16:51;18.40;;;2.88;;
56136;SDS011;42008;52.934;5.884;2022-12-29T13:25:07;13.13;;;3.07;;
56136;SDS011;42008;52.934;5.884;2022-12-29T13:27:51;20.83;;;2.70;;
56136;SDS011;42008;52.934;5.884;2022-12-29T13:30:33;20.33;;;3.00;;
56136;SDS011;42008;52.934;5.884;2022-12-29T13:35:53;17.50;;;3.30;;
56136;SDS011;42008;52.934;5.884;2022-12-29T13:41:08;21.77;;;3.60;;
56136;SDS011;42008;52.934;5.884;2022-12-29T13:43:42;21.53;;;2.87;;
56136;SDS011;42008;52.934;5.884;2022-12-29T13:46:16;20.43;;;3.50;;
56136;SDS011;42008;52.934;5.884;2022-12-29T13:48:50;25.23;;;4.70;;
56136;SDS011;42008;52.934;5.884;2022-12-29T13:51:20;26.40;;;3.90;;
56136;SDS011;42008;52.934;5.884;2022-12-29T13:53:55;20.50;;;3.40;;
56136;SDS011;42008;52.934;5.884;2022-12-29T14:02:28;24.13;;;4.47;;
56136;SDS011;42008;52.934;5.884;2022-12-29T14:04:59;23.58;;;4.28;;
56136;SDS011;42008;52.934;5.884;2022-12-29T14:07:27;24.40;;;3.67;;
56136;SDS011;42008;52.934;5.884;2022-12-29T14:09:54;18.00;;;3.90;;
56136;SDS011;42008;52.934;5.884;2022-12-29T14:17:36;23.80;;;4.37;;
56136;SDS011;42008;52.934;5.884;2022-12-29T14:20:02;18.70;;;3.37;;
56136;SDS011;42008;52.934;5.884;2022-12-29T14:22:32;27.03;;;4.60;;
56136;SDS011;42008;52.934;5.884;2022-12-29T14:24:58;24.40;;;3.53;;
56136;SDS011;42008;52.934;5.884;2022-12-29T14:29:52;19.37;;;3.90;;
56136;SDS011;42008;52.934;5.884;2022-12-29T14:34:59;17.52;;;3.20;;
56136;SDS011;42008;52.934;5.884;2022-12-29T14:37:45;15.03;;;3.67;;
56136;SDS011;42008;52.934;5.884;2022-12-29T14:40:16;23.27;;;3.53;;
56136;SDS011;42008;52.934;5.884;2022-12-29T14:42:44;19.30;;;3.27;;
56136;SDS011;42008;52.934;5.884;2022-12-29T14:47:40;17.60;;;3.10;;
56136;SDS011;42008;52.934;5.884;2022-12-29T14:57:53;17.40;;;3.33;;
56136;SDS011;42008;52.934;5.884;2022-12-29T15:00:26;19.83;;;2.93;;
56136;SDS011;42008;52.934;5.884;2022-12-29T15:08:38;16.00;;;2.97;;
56136;SDS011;42008;52.934;5.884;2022-12-29T15:11:15;17.03;;;2.77;;
56136;SDS011;42008;52.934;5.884;2022-12-29T15:13:44;22.90;;;2.87;;
56136;SDS011;42008;52.934;5.884;2022-12-29T15:16:29;17.13;;;3.20;;
56136;SDS011;42008;52.934;5.884;2022-12-29T15:18:55;20.53;;;4.07;;
56136;SDS011;42008;52.934;5.884;2022-12-29T15:21:25;16.30;;;2.70;;
56136;SDS011;42008;52.934;5.884;2022-12-29T15:23:53;22.83;;;3.70;;
56136;SDS011;42008;52.934;5.884;2022-12-29T15:26:19;17.83;;;3.23;;
56136;SDS011;42008;52.934;5.884;2022-12-29T15:28:48;16.93;;;3.00;;
56136;SDS011;42008;52.934;5.884;2022-12-29T15:31:19;15.83;;;2.90;;
56136;SDS011;42008;52.934;5.884;2022-12-29T15:33:46;19.93;;;3.60;;
56136;SDS011;42008;52.934;5.884;2022-12-29T15:36:20;20.27;;;3.90;;
56136;SDS011;42008;52.934;5.884;2022-12-29T15:38:51;18.80;;;3.80;;
56136;SDS011;42008;52.934;5.884;2022-12-29T15:46:19;20.50;;;4.30;;
56136;SDS011;42008;52.934;5.884;2022-12-29T15:48:45;17.43;;;3.07;;
56136;SDS011;42008;52.934;5.884;2022-12-29T15:51:18;20.47;;;3.30;;
56136;SDS011;42008;52.934;5.884;2022-12-29T15:53:47;18.07;;;3.63;;
56136;SDS011;42008;52.934;5.884;2022-12-29T15:56:15;20.53;;;3.33;;
56136;SDS011;42008;52.934;5.884;2022-12-29T15:58:42;19.10;;;3.60;;
56136;SDS011;42008;52.934;5.884;2022-12-29T16:03:53;21.53;;;3.50;;
56136;SDS011;42008;52.934;5.884;2022-12-29T16:06:31;16.67;;;3.03;;
56136;SDS011;42008;52.934;5.884;2022-12-29T16:08:59;20.17;;;3.83;;
56136;SDS011;42008;52.934;5.884;2022-12-29T16:11:33;17.77;;;2.90;;
56136;SDS011;42008;52.934;5.884;2022-12-29T16:14:02;23.20;;;3.87;;
56136;SDS011;42008;52.934;5.884;2022-12-29T16:16:38;25.08;;;3.38;;
56136;SDS011;42008;52.934;5.884;2022-12-29T16:19:27;22.38;;;3.33;;
56136;SDS011;42008;52.934;5.884;2022-12-29T16:21:58;24.45;;;3.95;;
56136;SDS011;42008;52.934;5.884;2022-12-29T16:24:26;21.97;;;3.60;;
56136;SDS011;42008;52.934;5.884;2022-12-29T16:27:07;17.27;;;2.78;;
56136;SDS011;42008;52.934;5.884;2022-12-29T16:29:43;16.70;;;2.83;;
56136;SDS011;42008;52.934;5.884;2022-12-29T16:35:11;13.10;;;2.17;;
56136;SDS011;42008;52.934;5.884;2022-12-29T16:37:37;19.20;;;3.40;;
56136;SDS011;42008;52.934;5.884;2022-12-29T16:42:54;21.17;;;4.10;;
56136;SDS011;42008;52.934;5.884;2022-12-29T16:47:48;24.70;;;3.70;;
56136;SDS011;42008;52.934;5.884;2022-12-29T16:50:29;31.27;;;4.70;;
56136;SDS011;42008;52.934;5.884;2022-12-29T16:52:55;23.77;;;3.60;;
56136;SDS011;42008;52.934;5.884;2022-12-29T16:55:20;22.70;;;3.37;;
56136;SDS011;42008;52.934;5.884;2022-12-29T16:57:46;25.37;;;3.50;;
56136;SDS011;42008;52.934;5.884;2022-12-29T17:00:19;22.13;;;3.53;;
56136;SDS011;42008;52.934;5.884;2022-12-29T17:02:46;23.30;;;4.80;;
56136;SDS011;42008;52.934;5.884;2022-12-29T17:05:14;17.97;;;3.63;;
56136;SDS011;42008;52.934;5.884;2022-12-29T17:07:41;29.53;;;4.03;;
56136;SDS011;42008;52.934;5.884;2022-12-29T17:10:06;27.53;;;4.33;;
56136;SDS011;42008;52.934;5.884;2022-12-29T17:12:33;32.77;;;4.93;;
56136;SDS011;42008;52.934;5.884;2022-12-29T17:15:00;26.13;;;4.90;;
56136;SDS011;42008;52.934;5.884;2022-12-29T17:22:31;26.37;;;4.17;;
56136;SDS011;42008;52.934;5.884;2022-12-29T17:24:59;31.80;;;3.97;;
56136;SDS011;42008;52.934;5.884;2022-12-29T17:30:27;28.83;;;5.43;;
56136;SDS011;42008;52.934;5.884;2022-12-29T17:33:09;24.13;;;4.93;;
56136;SDS011;42008;52.934;5.884;2022-12-29T17:35:38;27.90;;;5.43;;
56136;SDS011;42008;52.934;5.884;2022-12-29T17:38:37;31.40;;;5.63;;
56136;SDS011;42008;52.934;5.884;2022-12-29T17:40:58;19.47;;;3.60;;
56136;SDS011;42008;52.934;5.884;2022-12-29T17:43:24;21.60;;;4.17;;
56136;SDS011;42008;52.934;5.884;2022-12-29T17:45:55;19.70;;;3.70;;
56136;SDS011;42008;52.934;5.884;2022-12-29T17:48:23;30.00;;;4.87;;
56136;SDS011;42008;52.934;5.884;2022-12-29T17:50:50;27.07;;;4.17;;
56136;SDS011;42008;52.934;5.884;2022-12-29T17:53:21;29.17;;;4.23;;
56136;SDS011;42008;52.934;5.884;2022-12-29T17:55:49;28.97;;;4.00;;